Bradford, New York
Current Conditions -  °F | °C
As of 9:53 PM on Friday 21 Nov 2014 (Local Time) from KELM Reporting Station
Clear Clear  
Wind Chill: 15°   Ceiling: Unl
Heat Index: 15°   Visibility: 10mi
Dew Point: 10°   Wind: 0mph
Humidity: 80%   Direction: NA
Pressure: 30.44"   Gusts: NA
Location:  42.37°N, 77.11°W
Report Text: KELM 220253Z 00000KT 10SM CLR M09/M12 A3044 RMK AO2 SLP322 T10941122 53003
Loading
Personal Weather Stations






























Interactive Weather Map New forecast layout! Learn more

10-Day Weather Forecast

Advertisements
Track Severe Weather on mobile